Higgins, Oklahoma
Current Conditions -  °F | °C
As of 12:53 PM on Thursday 30 Oct 2014 (Local Time) from KMLC Reporting Station
Scattered Clouds Scattered Clouds  
Wind Chill: 72°   Ceiling: Unl
Heat Index: 72°   Visibility: 10mi
Dew Point: 46°   Wind: 15mph
Humidity: 40%   Direction: 210°SSW
Pressure: 30.12"   Gusts: 20mph
Location:  34.8806°N, 95.3086°W
Report Text: KMLC 301753Z AUTO 21013G17KT 10SM SCT070 22/08 A3012 RMK AO2 SLP194 60000 T02220078 10222 20061 58015
Loading
Personal Weather Stations






























Interactive Weather Map New forecast layout! Learn more

10-Day Weather Forecast

Advertisements
Track Severe Weather on mobile